Terminal Aerodrome Forecast
Issued by NWS

Home | Current Version | Previous Version | Text Only | Print | Product List | Glossary On
Versions: 1 2 3 4 5 6 7 8 9 10 11 12
000
FTUS41 KBTV 241720
TAFSLK
TAF
KSLK 241720Z 2418/2518 25013G23KT P6SM FEW070 BKN120
     FM250000 23006KT P6SM FEW150 SCT250
     FM251100 22004KT P6SM VCSH SCT030 BKN040 OVC050
     FM251300 22008KT P6SM VCSH SCT020 BKN030 OVC035
     FM251500 22006KT 6SM -SHRA BR SCT020 BKN025 OVC030=

USA.gov is the U.S. government's official web portal to all federal, state and local government web resources and services.